Greenwich, NY

10:11 AM EDT on June 03, 2015 (GMT -0400)
KNYGREEN17 | | Change Station
CLOSE
Current Station
Personal Weather Station
Location: Greenwich, NY
Elevation: 340 ft
Nearby Weather Stations

Elev 340 ft 43.10 °N, 73.52 °W | Updated 58 seconds ago

Mostly Cloudy
Mostly Cloudy
55.9 °F
Feels Like 55.9 °F
N
1.0
Wind Variable Wind from West
Gusts 6.0 mph

Today
High -- | Low -- °F
--% Chance of Precip.
Yesterday
High -- | Low -- °F
Precip. -- in
5:16 AM 8:28 PM
Full, 99% visible
Pressure 30.28 in
Visibility 10.0 miles
Clouds Few 2400 ft
Scattered Clouds 3100 ft
Dew Point 46 °F
Humidity 69%
Rainfall 0.00 in
Snow Depth Not available.
UV 6 out of 12
Pollen 9.00 out of 12
Air Quality Not available.
Flu Activity Sporadic
METAR KGFL 031353Z AUTO 01007KT 10SM FEW024 SCT031 13/06 A3027 RMK AO2 SLP254 T01280061

More Conditions Fewer Conditions

Pressure 30.28 in
Visibility 10.0 miles
Clouds Few 2400 ft
Scattered Clouds 3100 ft
Dew Point 46 °F
Humidity 69%
Rainfall 0.00 in
Snow Depth Not available.
UV 6 out of 12
Pollen 9.00 out of 12
Air Quality Not available.
Flu Activity Sporadic
METAR KGFL 031353Z AUTO 01007KT 10SM FEW024 SCT031 13/06 A3027 RMK AO2 SLP254 T01280061

More Conditions Fewer Conditions

10-Day Weather Forecast

×

Almanac

Astronomy

Jun. 03, 2015 Rise Set
Actual Time
Civil Twilight
Nautical Twilight
Astronomical Twilight
Moon
Length of Visible Light
Length of Day
Tomorrow will be .
, % of the Moon is Illuminated

Today's Extremes

State Highs State Lows

Community

WunderPhotos

Upload Photos

1,826,226 photos uploaded!

WunderBlogs® & News

Nearby

Air Quality

  Air Quality AQ Index Pollutant
Not available.

Snow Depth

Station Depth Elevation

Earthquake Activity

City Distance Mag. Time & Date
Minimum magnitude displayed is 2.5.

Coastal Water Temperatures

Place Temperature

Stations

Nearby Weather Stations

Station Location Temp. Windchill Dew Point Humidity Wind Precip. Elev Updated Type